Time,TemperatureF,DewpointF,PressureIn,WindDirection,WindDirectionDegrees,WindSpeedMPH,WindSpeedGustMPH,Humidity,HourlyPrecipIn,Conditions,Clouds,dailyrainin,SoftwareType,DateUTC
2013-05-26 00:05:00,32.0,31.5,29.72,SW,236,0.0,0.0,98,0.00,,,0.00,Wunderground v.1.15,2013-05-26 04:05:00,
2013-05-26 00:10:00,31.9,31.4,29.72,West,268,1.0,1.0,98,0.00,,,0.00,Wunderground v.1.15,2013-05-26 04:10:00,
2013-05-26 00:15:00,32.0,31.5,29.72,WSW,248,0.0,1.0,98,0.00,,,0.00,Wunderground v.1.15,2013-05-26 04:15:00,
2013-05-26 00:20:00,32.0,31.5,29.72,West,265,0.0,0.0,98,0.00,,,0.00,Wunderground v.1.15,2013-05-26 04:20:00,
2013-05-26 00:25:00,32.0,31.5,29.72,SW,219,0.0,0.0,98,0.00,,,0.00,Wunderground v.1.15,2013-05-26 04:25:00,
2013-05-26 00:30:00,32.1,31.6,29.72,SW,223,0.0,0.0,98,0.00,,,0.00,Wunderground v.1.15,2013-05-26 04:30:00,
2013-05-26 00:35:00,32.3,31.8,29.72,SW,229,0.0,5.0,98,0.00,,,0.00,Wunderground v.1.15,2013-05-26 04:35:00,
2013-05-26 00:45:00,32.5,32.0,29.71,WSW,240,0.0,0.0,98,0.00,,,0.00,Wunderground v.1.15,2013-05-26 04:45:00,
2013-05-26 00:50:00,32.6,32.1,29.71,WSW,244,0.0,0.0,98,0.00,,,0.00,Wunderground v.1.15,2013-05-26 04:50:00,
2013-05-26 00:55:00,32.7,32.2,29.71,NNW,339,0.0,0.0,98,0.00,,,0.00,Wunderground v.1.15,2013-05-26 04:55:00,
2013-05-26 01:05:00,33.0,32.5,29.71,West,273,0.0,2.0,98,0.00,,,0.00,Wunderground v.1.15,2013-05-26 05:05:00,
2013-05-26 01:15:00,33.3,32.8,29.70,West,267,0.0,2.0,98,0.00,,,0.00,Wunderground v.1.15,2013-05-26 05:15:00,
2013-05-26 01:20:00,33.4,32.9,29.71,SW,232,0.0,0.0,98,0.00,,,0.00,Wunderground v.1.15,2013-05-26 05:20:00,
2013-05-26 01:25:00,33.5,33.0,29.70,WSW,254,0.0,0.0,98,0.00,,,0.01,Wunderground v.1.15,2013-05-26 05:25:00,
2013-05-26 01:35:00,33.7,33.2,29.70,SW,230,1.0,1.0,98,0.00,,,0.01,Wunderground v.1.15,2013-05-26 05:35:00,
2013-05-26 01:45:00,34.0,33.5,29.70,WSW,238,1.0,1.0,98,0.00,,,0.02,Wunderground v.1.15,2013-05-26 05:45:00,
2013-05-26 01:50:00,34.0,33.5,29.70,West,270,1.0,1.0,98,0.00,,,0.02,Wunderground v.1.15,2013-05-26 05:50:00,
2013-05-26 01:55:00,34.1,33.6,29.70,SSW,203,0.0,1.0,98,0.00,,,0.02,Wunderground v.1.15,2013-05-26 05:55:00,
2013-05-26 02:05:00,34.4,33.9,29.70,SW,232,1.0,1.0,98,0.00,,,0.02,Wunderground v.1.15,2013-05-26 06:05:00,
2013-05-26 02:15:00,34.4,33.9,29.69,SSW,206,0.0,0.0,98,0.00,,,0.03,Wunderground v.1.15,2013-05-26 06:15:00,
2013-05-26 02:25:00,34.6,34.1,29.69,NNW,342,1.0,1.0,98,0.05,,,0.04,Wunderground v.1.15,2013-05-26 06:25:00,
2013-05-26 02:35:00,34.8,34.3,29.69,WNW,303,1.0,1.0,98,0.04,,,0.04,Wunderground v.1.15,2013-05-26 06:35:00,
2013-05-26 02:40:00,34.9,34.4,29.69,South,186,1.0,1.0,98,0.00,,,0.04,Wunderground v.1.15,2013-05-26 06:40:00,
2013-05-26 02:45:00,35.0,34.5,29.69,WNW,287,1.0,1.0,98,0.00,,,0.05,Wunderground v.1.15,2013-05-26 06:45:00,
2013-05-26 02:55:00,35.0,34.5,29.69,WSW,252,0.0,0.0,98,0.05,,,0.06,Wunderground v.1.15,2013-05-26 06:55:00,
2013-05-26 03:00:00,35.0,34.5,29.69,South,188,0.0,0.0,98,0.05,,,0.06,Wunderground v.1.15,2013-05-26 07:00:00,
2013-05-26 03:05:00,35.0,34.5,29.69,SW,236,0.0,0.0,98,0.05,,,0.06,Wunderground v.1.15,2013-05-26 07:05:00,
2013-05-26 03:15:00,35.0,34.2,29.69,SSW,199,1.0,1.0,97,0.00,,,0.06,Wunderground v.1.15,2013-05-26 07:15:00,
2013-05-26 03:25:00,35.0,34.2,29.69,South,182,1.0,1.0,97,0.00,,,0.07,Wunderground v.1.15,2013-05-26 07:25:00,
2013-05-26 03:30:00,35.0,34.2,29.69,North,9,1.0,5.0,97,0.05,,,0.08,Wunderground v.1.15,2013-05-26 07:30:00,
2013-05-26 03:35:00,35.0,34.2,29.69,WSW,245,1.0,6.0,97,0.05,,,0.08,Wunderground v.1.15,2013-05-26 07:35:00,
2013-05-26 03:45:00,35.0,34.2,29.69,North,360,1.0,1.0,97,0.04,,,0.08,Wunderground v.1.15,2013-05-26 07:45:00,
2013-05-26 03:50:00,34.9,34.1,29.70,SW,214,1.0,1.0,97,0.00,,,0.08,Wunderground v.1.15,2013-05-26 07:50:00,
2013-05-26 03:55:00,34.8,34.0,29.69,SE,144,1.0,1.0,97,0.00,,,0.09,Wunderground v.1.15,2013-05-26 07:55:00,
2013-05-26 04:05:00,34.5,33.7,29.70,SSW,207,1.0,2.0,97,0.08,,,0.10,Wunderground v.1.15,2013-05-26 08:05:00,
2013-05-26 04:10:00,34.4,33.6,29.70,WSW,243,1.0,1.0,97,0.05,,,0.10,Wunderground v.1.15,2013-05-26 08:10:00,
2013-05-26 04:15:00,34.4,33.6,29.70,SW,225,1.0,6.0,97,0.04,,,0.11,Wunderground v.1.15,2013-05-26 08:15:00,
2013-05-26 04:25:00,34.4,33.6,29.70,WNW,291,2.0,2.0,97,0.09,,,0.12,Wunderground v.1.15,2013-05-26 08:25:00,
2013-05-26 04:35:00,34.4,33.6,29.70,SW,233,2.0,2.0,97,0.04,,,0.13,Wunderground v.1.15,2013-05-26 08:35:00,
2013-05-26 04:40:00,34.4,33.6,29.71,WSW,246,2.0,2.0,97,0.04,,,0.13,Wunderground v.1.15,2013-05-26 08:40:00,
2013-05-26 04:50:00,34.4,33.9,29.71,SW,218,1.0,3.0,98,0.06,,,0.14,Wunderground v.1.15,2013-05-26 08:50:00,
2013-05-26 04:55:00,34.5,34.0,29.71,WSW,246,1.0,3.0,98,0.05,,,0.14,Wunderground v.1.15,2013-05-26 08:55:00,
2013-05-26 05:05:00,34.8,34.3,29.72,SW,216,1.0,4.0,98,0.00,,,0.14,Wunderground v.1.15,2013-05-26 09:05:00,
2013-05-26 05:10:00,35.0,34.5,29.72,WSW,252,1.0,1.0,98,0.00,,,0.15,Wunderground v.1.15,2013-05-26 09:10:00,
2013-05-26 05:15:00,35.1,34.6,29.72,SW,230,1.0,1.0,98,0.00,,,0.15,Wunderground v.1.15,2013-05-26 09:15:00,
2013-05-26 05:25:00,35.3,34.8,29.72,South,186,2.0,2.0,98,0.05,,,0.16,Wunderground v.1.15,2013-05-26 09:25:00,
2013-05-26 05:30:00,35.4,34.9,29.72,WSW,242,1.0,1.0,98,0.05,,,0.16,Wunderground v.1.15,2013-05-26 09:30:00,
2013-05-26 05:35:00,35.4,34.9,29.72,NW,312,1.0,1.0,98,0.04,,,0.16,Wunderground v.1.15,2013-05-26 09:35:00,
2013-05-26 05:45:00,35.5,34.7,29.72,SE,139,2.0,3.0,97,0.00,,,0.17,Wunderground v.1.15,2013-05-26 09:45:00,
2013-05-26 05:55:00,35.4,34.6,29.73,SW,225,1.0,2.0,97,0.08,,,0.18,Wunderground v.1.15,2013-05-26 09:55:00,
2013-05-26 06:00:00,35.4,34.6,29.73,WSW,250,2.0,2.0,97,0.05,,,0.18,Wunderground v.1.15,2013-05-26 10:00:00,
2013-05-26 06:05:00,35.3,34.5,29.73,NW,319,2.0,2.0,97,0.04,,,0.18,Wunderground v.1.15,2013-05-26 10:05:00,
2013-05-26 06:15:00,35.3,34.5,29.74,WNW,283,1.0,1.0,97,0.07,,,0.20,Wunderground v.1.15,2013-05-26 10:15:00,
2013-05-26 06:20:00,35.3,34.5,29.74,West,263,2.0,2.0,97,0.07,,,0.20,Wunderground v.1.15,2013-05-26 10:20:00,
2013-05-26 06:25:00,35.3,34.5,29.74,WSW,250,2.0,2.0,97,0.05,,,0.20,Wunderground v.1.15,2013-05-26 10:25:00,
2013-05-26 06:35:00,35.3,34.5,29.74,WNW,288,1.0,3.0,97,0.00,,,0.21,Wunderground v.1.15,2013-05-26 10:35:00,
2013-05-26 06:40:00,35.3,34.5,29.75,WSW,238,2.0,2.0,97,0.00,,,0.21,Wunderground v.1.15,2013-05-26 10:40:00,
2013-05-26 06:45:00,35.3,34.5,29.75,SW,223,1.0,2.0,97,0.07,,,0.22,Wunderground v.1.15,2013-05-26 10:45:00,
2013-05-26 06:55:00,35.4,34.6,29.75,WSW,242,1.0,4.0,97,0.05,,,0.22,Wunderground v.1.15,2013-05-26 10:55:00,
2013-05-26 07:05:00,35.4,34.9,29.75,WSW,245,2.0,3.0,98,0.00,,,0.22,Wunderground v.1.15,2013-05-26 11:05:00,
2013-05-26 07:10:00,35.6,34.8,29.75,West,281,2.0,2.0,97,0.00,,,0.23,Wunderground v.1.15,2013-05-26 11:10:00,
2013-05-26 07:20:00,35.9,35.4,29.76,SSW,209,2.0,2.0,98,0.06,,,0.24,Wunderground v.1.15,2013-05-26 11:20:00,
2013-05-26 07:25:00,36.0,35.2,29.76,North,11,3.0,3.0,97,0.06,,,0.24,Wunderground v.1.15,2013-05-26 11:25:00,
2013-05-26 07:30:00,36.1,35.3,29.75,WSW,242,2.0,2.0,97,0.04,,,0.24,Wunderground v.1.15,2013-05-26 11:30:00,
2013-05-26 07:35:00,36.3,35.5,29.76,WNW,283,2.0,2.0,97,0.00,,,0.24,Wunderground v.1.15,2013-05-26 11:35:00,
2013-05-26 07:45:00,36.6,35.8,29.76,SSE,158,2.0,3.0,97,0.00,,,0.25,Wunderground v.1.15,2013-05-26 11:45:00,
2013-05-26 07:55:00,37.1,36.1,29.77,WSW,245,2.0,4.0,96,0.05,,,0.26,Wunderground v.1.15,2013-05-26 11:55:00,
2013-05-26 08:05:00,37.4,36.4,29.77,WSW,249,2.0,2.0,96,0.05,,,0.26,Wunderground v.1.15,2013-05-26 12:05:00,
2013-05-26 08:15:00,39.0,38.0,29.77,NE,44,2.0,4.0,96,0.00,,,0.26,Wunderground v.1.15,2013-05-26 12:15:00,
2013-05-26 08:20:00,39.1,37.5,29.77,WNW,284,2.0,2.0,94,0.00,,,0.26,Wunderground v.1.15,2013-05-26 12:20:00,
2013-05-26 08:25:00,39.2,37.6,29.77,SSE,153,2.0,4.0,94,0.00,,,0.27,Wunderground v.1.15,2013-05-26 12:25:00,
2013-05-26 08:35:00,39.3,37.2,29.78,WSW,241,3.0,10.0,92,0.05,,,0.28,Wunderground v.1.15,2013-05-26 12:35:00,
2013-05-26 08:40:00,40.4,38.5,29.78,NW,306,3.0,3.0,93,0.05,,,0.28,Wunderground v.1.15,2013-05-26 12:40:00,
2013-05-26 08:45:00,41.8,39.6,29.77,NNE,30,2.0,6.0,92,0.05,,,0.28,Wunderground v.1.15,2013-05-26 12:45:00,
2013-05-26 08:55:00,42.3,39.3,29.78,West,272,3.0,3.0,89,0.00,,,0.29,Wunderground v.1.15,2013-05-26 12:55:00,
2013-05-26 09:05:00,43.3,39.4,29.78,NE,40,2.0,9.0,86,0.05,,,0.30,Wunderground v.1.15,2013-05-26 13:05:00,
2013-05-26 09:15:00,41.7,37.8,29.79,West,273,2.0,6.0,86,0.05,,,0.30,Wunderground v.1.15,2013-05-26 13:15:00,
2013-05-26 09:25:00,41.4,37.5,29.78,WSW,257,2.0,5.0,86,0.00,,,0.30,Wunderground v.1.15,2013-05-26 13:25:00,
2013-05-26 09:35:00,41.5,37.9,29.79,SSW,206,3.0,10.0,87,0.00,,,0.30,Wunderground v.1.15,2013-05-26 13:35:00,
2013-05-26 09:40:00,41.8,38.5,29.79,West,268,2.0,2.0,88,0.00,,,0.30,Wunderground v.1.15,2013-05-26 13:40:00,
2013-05-26 09:45:00,42.5,38.6,29.79,SW,233,1.0,2.0,86,0.00,,,0.30,Wunderground v.1.15,2013-05-26 13:45:00,
2013-05-26 09:55:00,43.3,38.5,29.80,WSW,243,2.0,10.0,83,0.00,,,0.30,Wunderground v.1.15,2013-05-26 13:55:00,
2013-05-26 10:05:00,43.7,38.3,29.80,NE,41,2.0,9.0,81,0.00,,,0.30,Wunderground v.1.15,2013-05-26 14:05:00,
2013-05-26 10:10:00,43.8,39.3,29.80,WSW,240,2.0,6.0,84,0.00,,,0.30,Wunderground v.1.15,2013-05-26 14:10:00,
2013-05-26 10:15:00,44.5,39.3,29.80,WNW,301,2.0,6.0,82,0.00,,,0.30,Wunderground v.1.15,2013-05-26 14:15:00,
2013-05-26 10:25:00,45.6,40.4,29.80,North,355,1.0,7.0,82,0.00,,,0.30,Wunderground v.1.15,2013-05-26 14:25:00,
2013-05-26 10:30:00,46.3,40.5,29.81,NE,44,2.0,2.0,80,0.00,,,0.30,Wunderground v.1.15,2013-05-26 14:30:00,
2013-05-26 10:35:00,46.9,41.1,29.80,SSW,202,2.0,6.0,80,0.00,,,0.30,Wunderground v.1.15,2013-05-26 14:35:00,
2013-05-26 10:45:00,47.5,40.3,29.81,South,175,2.0,2.0,76,0.00,,,0.30,Wunderground v.1.15,2013-05-26 14:45:00,
2013-05-26 10:55:00,47.6,39.7,29.81,NNW,327,2.0,5.0,74,0.00,,,0.30,Wunderground v.1.15,2013-05-26 14:55:00,
2013-05-26 11:00:00,47.5,40.0,29.81,North,351,2.0,9.0,75,0.00,,,0.30,Wunderground v.1.15,2013-05-26 15:00:00,
2013-05-26 11:10:00,47.4,40.2,29.81,NNW,343,2.0,2.0,76,0.00,,,0.30,Wunderground v.1.15,2013-05-26 15:10:00,
2013-05-26 11:15:00,47.2,39.3,29.81,NNW,331,1.0,2.0,74,0.00,,,0.30,Wunderground v.1.15,2013-05-26 15:15:00,
2013-05-26 11:25:00,46.8,40.3,29.82,ENE,63,1.0,5.0,78,0.00,,,0.30,Wunderground v.1.15,2013-05-26 15:25:00,
2013-05-26 11:30:00,46.6,39.8,29.82,WSW,237,1.0,1.0,77,0.00,,,0.30,Wunderground v.1.15,2013-05-26 15:30:00,
2013-05-26 11:35:00,46.3,38.5,29.82,NW,313,2.0,2.0,74,0.00,,,0.30,Wunderground v.1.15,2013-05-26 15:35:00,
2013-05-26 11:45:00,46.5,39.3,29.82,West,277,1.0,2.0,76,0.00,,,0.30,Wunderground v.1.15,2013-05-26 15:45:00,
2013-05-26 11:50:00,46.6,39.1,29.82,ESE,120,1.0,1.0,75,0.00,,,0.30,Wunderground v.1.15,2013-05-26 15:50:00,
2013-05-26 11:55:00,46.7,39.9,29.82,WSW,254,2.0,2.0,77,0.00,,,0.30,Wunderground v.1.15,2013-05-26 15:55:00,
2013-05-26 12:05:00,47.2,40.0,29.82,WSW,250,2.0,2.0,76,0.00,,,0.30,Wunderground v.1.15,2013-05-26 16:05:00,
2013-05-26 12:15:00,47.6,40.4,29.83,WSW,246,2.0,2.0,76,0.00,,,0.30,Wunderground v.1.15,2013-05-26 16:15:00,
2013-05-26 12:20:00,48.2,40.6,29.82,NNE,30,2.0,2.0,75,0.00,,,0.30,Wunderground v.1.15,2013-05-26 16:20:00,
2013-05-26 12:30:00,49.5,40.1,29.82,WNW,291,2.0,2.0,70,0.00,,,0.30,Wunderground v.1.15,2013-05-26 16:30:00,
2013-05-26 12:35:00,50.2,41.5,29.83,SW,219,3.0,6.0,72,0.00,,,0.30,Wunderground v.1.15,2013-05-26 16:35:00,
2013-05-26 12:40:00,50.6,40.0,29.83,NNW,331,3.0,6.0,67,0.00,,,0.30,Wunderground v.1.15,2013-05-26 16:40:00,
2013-05-26 14:20:00,48.2,39.2,29.87,SW,222,1.0,2.0,71,0.00,,,0.30,Wunderground v.1.15,2013-05-26 18:20:00,
2013-05-26 14:25:00,48.0,39.0,29.87,SW,221,2.0,2.0,71,0.00,,,0.30,Wunderground v.1.15,2013-05-26 18:25:00,
2013-05-26 14:30:00,47.8,39.2,29.87,SW,219,3.0,4.0,72,0.00,,,0.30,Wunderground v.1.15,2013-05-26 18:30:00,
2013-05-26 14:35:00,47.9,40.0,29.88,SSW,209,2.0,4.0,74,0.00,,,0.30,Wunderground v.1.15,2013-05-26 18:35:00,
2013-05-26 14:45:00,48.5,39.9,29.87,NNW,348,1.0,5.0,72,0.00,,,0.30,Wunderground v.1.15,2013-05-26 18:45:00,
2013-05-26 14:55:00,48.9,39.5,29.87,North,5,2.0,2.0,70,0.00,,,0.30,Wunderground v.1.15,2013-05-26 18:55:00,
2013-05-26 15:00:00,49.2,40.2,29.88,ESE,111,1.0,4.0,71,0.00,,,0.30,Wunderground v.1.15,2013-05-26 19:00:00,
2013-05-26 15:05:00,49.0,39.6,29.88,South,174,2.0,4.0,70,0.00,,,0.30,Wunderground v.1.15,2013-05-26 19:05:00,
2013-05-26 15:15:00,51.3,41.5,29.88,NW,314,1.0,4.0,69,0.00,,,0.30,Wunderground v.1.15,2013-05-26 19:15:00,
2013-05-26 15:20:00,51.6,41.0,29.88,NE,42,2.0,2.0,67,0.00,,,0.30,Wunderground v.1.15,2013-05-26 19:20:00,
2013-05-26 15:25:00,51.3,40.3,29.88,SW,229,3.0,3.0,66,0.00,,,0.30,Wunderground v.1.15,2013-05-26 19:25:00,
2013-05-26 15:35:00,50.7,40.9,29.89,NNE,30,1.0,2.0,69,0.00,,,0.30,Wunderground v.1.15,2013-05-26 19:35:00,
2013-05-26 15:45:00,50.5,41.1,29.90,SSE,159,1.0,1.0,70,0.00,,,0.30,Wunderground v.1.15,2013-05-26 19:45:00,
2013-05-26 15:50:00,50.5,39.9,29.90,WSW,249,1.0,1.0,67,0.00,,,0.30,Wunderground v.1.15,2013-05-26 19:50:00,
2013-05-26 16:00:00,51.1,40.9,29.90,WSW,241,1.0,1.0,68,0.00,,,0.30,Wunderground v.1.15,2013-05-26 20:00:00,
2013-05-26 16:05:00,51.4,40.4,29.90,SSE,147,1.0,3.0,66,0.00,,,0.30,Wunderground v.1.15,2013-05-26 20:05:00,
2013-05-26 16:15:00,52.3,40.9,29.91,SW,227,3.0,7.0,65,0.00,,,0.30,Wunderground v.1.15,2013-05-26 20:15:00,
2013-05-26 16:20:00,52.4,41.0,29.91,SE,131,3.0,3.0,65,0.00,,,0.30,Wunderground v.1.15,2013-05-26 20:20:00,
2013-05-26 16:25:00,51.2,39.8,29.91,SW,235,2.0,3.0,65,0.00,,,0.30,Wunderground v.1.15,2013-05-26 20:25:00,
2013-05-26 16:35:00,49.9,39.4,29.92,North,349,2.0,2.0,67,0.00,,,0.30,Wunderground v.1.15,2013-05-26 20:35:00,
2013-05-26 16:40:00,49.6,39.5,29.92,West,280,1.0,1.0,68,0.00,,,0.30,Wunderground v.1.15,2013-05-26 20:40:00,
2013-05-26 16:45:00,49.6,39.5,29.92,North,355,1.0,1.0,68,0.00,,,0.30,Wunderground v.1.15,2013-05-26 20:45:00,
2013-05-26 16:55:00,51.0,40.0,29.92,WNW,294,1.0,1.0,66,0.00,,,0.30,Wunderground v.1.15,2013-05-26 20:55:00,
2013-05-26 17:05:00,51.5,40.9,29.93,ESE,121,1.0,2.0,67,0.00,,,0.30,Wunderground v.1.15,2013-05-26 21:05:00,
2013-05-26 17:10:00,51.4,41.2,29.93,SSW,209,1.0,5.0,68,0.00,,,0.30,Wunderground v.1.15,2013-05-26 21:10:00,
2013-05-26 17:20:00,51.5,41.7,29.93,North,5,1.0,7.0,69,0.00,,,0.30,Wunderground v.1.15,2013-05-26 21:20:00,
2013-05-26 17:25:00,51.3,40.7,29.93,SE,137,2.0,7.0,67,0.00,,,0.30,Wunderground v.1.15,2013-05-26 21:25:00,
2013-05-26 17:35:00,51.2,40.2,29.93,SSW,198,3.0,3.0,66,0.00,,,0.30,Wunderground v.1.15,2013-05-26 21:35:00,
2013-05-26 17:40:00,51.0,39.6,29.93,NNE,15,3.0,3.0,65,0.00,,,0.30,Wunderground v.1.15,2013-05-26 21:40:00,
2013-05-26 17:45:00,50.7,39.4,29.93,NNE,17,2.0,10.0,65,0.00,,,0.30,Wunderground v.1.15,2013-05-26 21:45:00,
2013-05-26 17:55:00,50.6,40.0,29.94,ENE,72,3.0,3.0,67,0.00,,,0.30,Wunderground v.1.15,2013-05-26 21:55:00,
2013-05-26 18:00:00,50.4,39.9,29.94,SSW,207,3.0,5.0,67,0.00,,,0.30,Wunderground v.1.15,2013-05-26 22:00:00,
2013-05-26 18:05:00,50.3,40.1,29.94,WNW,294,2.0,5.0,68,0.00,,,0.30,Wunderground v.1.15,2013-05-26 22:05:00,
2013-05-26 18:15:00,49.8,39.3,29.94,WSW,254,2.0,9.0,67,0.00,,,0.30,Wunderground v.1.15,2013-05-26 22:15:00,
2013-05-26 18:25:00,49.4,39.7,29.95,SSW,205,2.0,4.0,69,0.00,,,0.30,Wunderground v.1.15,2013-05-26 22:25:00,
2013-05-26 18:30:00,49.3,39.6,29.96,NW,306,2.0,2.0,69,0.00,,,0.30,Wunderground v.1.15,2013-05-26 22:30:00,
2013-05-26 18:35:00,49.2,39.5,29.96,West,281,1.0,2.0,69,0.00,,,0.30,Wunderground v.1.15,2013-05-26 22:35:00,
2013-05-26 18:45:00,48.8,39.4,29.96,WSW,238,2.0,2.0,70,0.00,,,0.30,Wunderground v.1.15,2013-05-26 22:45:00,
2013-05-26 18:50:00,48.2,39.2,29.96,SW,231,2.0,5.0,71,0.00,,,0.30,Wunderground v.1.15,2013-05-26 22:50:00,
2013-05-26 18:55:00,47.8,39.2,29.96,NW,310,3.0,5.0,72,0.00,,,0.30,Wunderground v.1.15,2013-05-26 22:55:00,
2013-05-26 19:05:00,47.3,39.1,29.97,SSW,192,3.0,10.0,73,0.00,,,0.30,Wunderground v.1.15,2013-05-26 23:05:00,
2013-05-26 19:10:00,47.1,38.9,29.97,SSW,204,3.0,5.0,73,0.00,,,0.30,Wunderground v.1.15,2013-05-26 23:10:00,
2013-05-26 19:15:00,47.0,39.1,29.98,WSW,257,3.0,5.0,74,0.00,,,0.30,Wunderground v.1.15,2013-05-26 23:15:00,
2013-05-26 19:25:00,46.9,39.0,29.99,WSW,252,2.0,2.0,74,0.00,,,0.30,Wunderground v.1.15,2013-05-26 23:25:00,
2013-05-26 19:35:00,46.7,38.9,29.99,West,269,3.0,6.0,74,0.00,,,0.30,Wunderground v.1.15,2013-05-26 23:35:00,
2013-05-26 19:40:00,46.5,38.7,30.00,NE,51,2.0,2.0,74,0.00,,,0.30,Wunderground v.1.15,2013-05-26 23:40:00,
2013-05-26 19:50:00,46.4,39.2,30.01,ESE,107,1.0,1.0,76,0.00,,,0.30,Wunderground v.1.15,2013-05-26 23:50:00,
2013-05-26 19:55:00,46.2,38.7,30.00,East,92,1.0,1.0,75,0.00,,,0.30,Wunderground v.1.15,2013-05-26 23:55:00,
2013-05-26 20:05:00,45.6,38.5,30.00,SW,230,2.0,4.0,76,0.00,,,0.30,Wunderground v.1.15,2013-05-27 00:05:00,
2013-05-26 20:10:00,45.4,38.3,30.01,NNE,17,0.0,0.0,76,0.00,,,0.30,Wunderground v.1.15,2013-05-27 00:10:00,
2013-05-26 20:15:00,45.3,38.2,30.01,WSW,237,0.0,0.0,76,0.00,,,0.30,Wunderground v.1.15,2013-05-27 00:15:00,
2013-05-26 20:25:00,45.4,37.9,30.02,SW,223,1.0,1.0,75,0.00,,,0.30,Wunderground v.1.15,2013-05-27 00:25:00,
2013-05-26 20:30:00,45.3,37.8,30.02,ENE,60,1.0,1.0,75,0.00,,,0.30,Wunderground v.1.15,2013-05-27 00:30:00,
2013-05-26 20:35:00,45.2,37.7,30.02,SSW,211,1.0,4.0,75,0.00,,,0.30,Wunderground v.1.15,2013-05-27 00:35:00,
2013-05-26 20:45:00,45.0,38.2,30.02,West,260,2.0,4.0,77,0.00,,,0.30,Wunderground v.1.15,2013-05-27 00:45:00,
2013-05-26 20:55:00,44.8,37.7,30.02,West,279,1.0,1.0,76,0.00,,,0.30,Wunderground v.1.15,2013-05-27 00:55:00,
2013-05-26 21:05:00,44.3,37.5,30.02,SW,214,0.0,0.0,77,0.00,,,0.30,Wunderground v.1.15,2013-05-27 01:05:00,
2013-05-26 21:15:00,44.2,37.8,30.02,ENE,68,0.0,0.0,78,0.00,,,0.30,Wunderground v.1.15,2013-05-27 01:15:00,
2013-05-26 21:25:00,44.2,37.8,30.03,SW,215,1.0,1.0,78,0.00,,,0.30,Wunderground v.1.15,2013-05-27 01:25:00,
2013-05-26 21:30:00,44.0,37.6,30.03,SW,225,1.0,1.0,78,0.00,,,0.30,Wunderground v.1.15,2013-05-27 01:30:00,
2013-05-26 21:35:00,43.9,37.5,30.04,SSW,195,0.0,1.0,78,0.00,,,0.30,Wunderground v.1.15,2013-05-27 01:35:00,
2013-05-26 21:45:00,43.6,37.8,30.04,WSW,239,0.0,0.0,80,0.00,,,0.30,Wunderground v.1.15,2013-05-27 01:45:00,
2013-05-26 21:50:00,43.2,37.4,30.04,SW,236,0.0,0.0,80,0.00,,,0.30,Wunderground v.1.15,2013-05-27 01:50:00,
2013-05-26 21:55:00,43.0,37.6,30.04,SW,236,0.0,0.0,81,0.00,,,0.30,Wunderground v.1.15,2013-05-27 01:55:00,
2013-05-26 22:05:00,42.6,37.5,30.05,SW,236,0.0,2.0,82,0.00,,,0.30,Wunderground v.1.15,2013-05-27 02:05:00,
2013-05-26 22:15:00,42.2,37.4,30.04,SW,235,0.0,0.0,83,0.00,,,0.30,Wunderground v.1.15,2013-05-27 02:15:00,
2013-05-26 22:20:00,42.0,37.2,30.04,SW,235,0.0,0.0,83,0.00,,,0.30,Wunderground v.1.15,2013-05-27 02:20:00,
2013-05-26 22:25:00,41.9,37.1,30.05,SW,235,0.0,0.0,83,0.00,,,0.30,Wunderground v.1.15,2013-05-27 02:25:00,
2013-05-26 22:35:00,41.8,37.0,30.05,SW,235,0.0,0.0,83,0.00,,,0.30,Wunderground v.1.15,2013-05-27 02:35:00,
2013-05-26 22:40:00,41.7,36.9,30.05,SW,234,0.0,0.0,83,0.00,,,0.30,Wunderground v.1.15,2013-05-27 02:40:00,
2013-05-26 22:45:00,41.5,37.0,30.04,SW,235,0.0,0.0,84,0.00,,,0.30,Wunderground v.1.15,2013-05-27 02:45:00,
2013-05-26 22:55:00,41.0,36.8,30.04,SW,235,0.0,0.0,85,0.00,,,0.30,Wunderground v.1.15,2013-05-27 02:55:00,
2013-05-26 23:05:00,40.7,36.5,30.04,SW,235,0.0,0.0,85,0.00,,,0.30,Wunderground v.1.15,2013-05-27 03:05:00,
2013-05-26 23:10:00,40.6,36.4,30.04,SW,235,0.0,0.0,85,0.00,,,0.30,Wunderground v.1.15,2013-05-27 03:10:00,
2013-05-26 23:15:00,40.6,36.4,30.04,SW,235,0.0,0.0,85,0.00,,,0.30,Wunderground v.1.15,2013-05-27 03:15:00,
2013-05-26 23:25:00,40.5,36.3,30.04,SW,235,0.0,1.0,85,0.00,,,0.30,Wunderground v.1.15,2013-05-27 03:25:00,
2013-05-26 23:35:00,40.7,36.5,30.04,SW,235,0.0,0.0,85,0.00,,,0.30,Wunderground v.1.15,2013-05-27 03:35:00,
2013-05-26 23:40:00,40.7,36.5,30.04,SW,235,0.0,0.0,85,0.00,,,0.30,Wunderground v.1.15,2013-05-27 03:40:00,
2013-05-26 23:45:00,40.7,36.2,30.04,SW,235,0.0,0.0,84,0.00,,,0.30,Wunderground v.1.15,2013-05-27 03:45:00,
2013-05-26 23:55:00,40.7,36.2,30.05,SW,236,0.0,0.0,84,0.00,,,0.30,Wunderground v.1.15,2013-05-27 03:55:00,